Oxford, Kansas
Current Conditions -  °F | °C
As of 5:54 PM on Wednesday 28 Jan 2015 (Local Time) from KWLD Reporting Station
Clear Clear  
Wind Chill: 60°   Ceiling: Unl
Heat Index: 60°   Visibility: 10mi
Dew Point: 26°   Wind: 7mph
Humidity: 27%   Direction: 230°SW
Pressure: 29.85"   Gusts: NA
Location:  37.27°N, 97.17°W
Report Text: KWLD 282354Z AUTO 23006KT 10SM CLR 16/M03 A2985 RMK AO2 SLP106 T01561033 10250 20156 51016
Loading
Personal Weather Stations






























Interactive Weather Map New forecast layout! Learn more

10-Day Weather Forecast

Advertisements
Track Severe Weather on mobile